createdAt,value
2023-05-10T00:00:59.366Z,12.50
2023-05-10T00:06:02.813Z,12.40
2023-05-10T00:11:07.479Z,12.30
2023-05-10T00:16:13.156Z,12.10
2023-05-10T00:21:16.340Z,12.00
2023-05-10T00:26:21.252Z,11.80
2023-05-10T00:31:28.534Z,11.90
2023-05-10T00:36:32.325Z,11.70
2023-05-10T00:41:37.114Z,11.80
2023-05-10T00:46:42.882Z,11.70
2023-05-10T00:51:46.877Z,11.60
2023-05-10T00:56:52.009Z,11.60
2023-05-10T01:01:55.410Z,11.50
2023-05-10T01:07:00.481Z,11.30
2023-05-10T01:12:07.974Z,11.30
2023-05-10T01:17:13.227Z,11.10
2023-05-10T01:22:43.898Z,11.00
2023-05-10T01:28:33.047Z,11.00
2023-05-10T01:33:44.651Z,10.80
2023-05-10T01:38:52.666Z,10.80
2023-05-10T01:44:02.201Z,10.90
2023-05-10T01:49:12.074Z,10.70
2023-05-10T01:54:20.353Z,10.60
2023-05-10T01:59:27.567Z,10.70
2023-05-10T02:04:33.266Z,10.60
2023-05-10T02:09:37.916Z,10.60
2023-05-10T02:14:43.196Z,10.50
2023-05-10T02:19:48.219Z,10.50
2023-05-10T02:24:52.216Z,10.50
2023-05-10T02:29:56.009Z,10.40
2023-05-10T02:35:03.928Z,10.40
2023-05-10T02:40:09.625Z,10.30
2023-05-10T02:45:21.036Z,10.40
2023-05-10T02:50:28.951Z,10.30
2023-05-10T02:55:36.557Z,10.50
2023-05-10T03:00:40.939Z,10.30
2023-05-10T03:05:46.112Z,10.20
2023-05-10T03:11:00.368Z,10.10
2023-05-10T03:16:09.396Z,10.30
2023-05-10T03:21:17.300Z,10.20
2023-05-10T03:26:27.096Z,10.10
2023-05-10T03:31:39.064Z,10.10
2023-05-10T03:36:43.961Z,10.10
2023-05-10T03:41:47.753Z,10.10
2023-05-10T03:46:51.272Z,10.20
2023-05-10T03:51:56.062Z,10.20
2023-05-10T03:56:59.413Z,10.10
2023-05-10T04:02:03.838Z,10.20
2023-05-10T04:07:10.653Z,10.30
2023-05-10T04:12:14.142Z,10.50
2023-05-10T04:17:17.592Z,10.60
2023-05-10T04:22:22.312Z,10.50
2023-05-10T04:27:25.664Z,10.70
2023-05-10T04:32:29.285Z,10.90
2023-05-10T04:37:34.107Z,11.10
2023-05-10T04:42:37.532Z,11.20
2023-05-10T04:47:40.762Z,11.20
2023-05-10T04:52:45.992Z,11.30
2023-05-10T04:57:49.504Z,11.40
2023-05-10T05:02:52.899Z,11.70
2023-05-10T05:07:57.689Z,12.10
2023-05-10T05:13:01.122Z,14.10
2023-05-10T05:18:05.152Z,15.40
2023-05-10T05:23:10.170Z,16.80
2023-05-10T05:28:13.723Z,17.70
2023-05-10T05:33:17.120Z,18.80
2023-05-10T05:38:21.927Z,18.50
2023-05-10T05:43:26.164Z,19.00
2023-05-10T05:48:31.159Z,19.10
2023-05-10T05:53:35.807Z,19.90
2023-05-10T05:58:39.147Z,19.90
2023-05-10T06:03:42.610Z,20.40
2023-05-10T06:08:47.414Z,20.50
2023-05-10T06:13:51.300Z,21.10
2023-05-10T06:18:54.585Z,21.30
2023-05-10T06:23:59.308Z,21.40
2023-05-10T06:29:03.475Z,21.50
2023-05-10T06:34:08.969Z,21.40
2023-05-10T06:39:13.727Z,22.50
2023-05-10T06:44:17.187Z,22.00
2023-05-10T06:49:20.662Z,21.40
2023-05-10T06:54:25.616Z,22.10
2023-05-10T06:59:28.888Z,22.50
2023-05-10T07:04:32.830Z,22.60
2023-05-10T07:09:37.463Z,23.20
2023-05-10T07:14:40.957Z,23.50
2023-05-10T07:19:44.358Z,23.30
2023-05-10T07:24:49.119Z,23.40
2023-05-10T07:29:53.660Z,24.50
2023-05-10T07:34:57.042Z,23.80
2023-05-10T07:40:01.766Z,24.40
2023-05-10T07:45:07.062Z,23.40
2023-05-10T07:50:10.771Z,23.70
2023-05-10T07:55:15.874Z,24.70
2023-05-10T08:00:20.980Z,24.40
2023-05-10T08:05:24.699Z,23.70
2023-05-10T08:10:29.626Z,25.10
2023-05-10T08:15:33.006Z,24.60
2023-05-10T08:20:37.034Z,24.10
2023-05-10T08:25:41.973Z,24.60
2023-05-10T08:30:45.364Z,24.20
2023-05-10T08:35:50.001Z,24.80
2023-05-10T08:40:59.946Z,24.70
2023-05-10T08:46:06.302Z,25.50
2023-05-10T08:51:12.552Z,25.70
2023-05-10T08:56:18.900Z,26.90
2023-05-10T09:01:23.465Z,27.10
2023-05-10T09:06:27.090Z,26.70
2023-05-10T09:11:32.553Z,26.10
2023-05-10T09:16:36.855Z,26.60
2023-05-10T09:21:40.469Z,27.80
2023-05-10T09:26:52.251Z,27.70
2023-05-10T09:31:56.318Z,26.70
2023-05-10T09:37:05.386Z,27.20
2023-05-10T09:42:10.932Z,27.10
2023-05-10T09:47:19.842Z,28.10
2023-05-10T09:52:23.314Z,27.20
2023-05-10T09:57:28.190Z,27.50
2023-05-10T10:02:32.564Z,27.70
2023-05-10T10:07:36.899Z,28.10
2023-05-10T10:12:42.216Z,27.80
2023-05-10T10:17:47.618Z,28.80
2023-05-10T10:23:11.394Z,27.00
2023-05-10T10:28:28.808Z,27.20
2023-05-10T10:33:41.355Z,27.30
2023-05-10T10:39:00.761Z,27.00
2023-05-10T10:44:40.260Z,26.80
2023-05-10T10:49:49.009Z,27.60
2023-05-10T10:54:53.693Z,26.90
2023-05-10T11:00:27.455Z,26.30
2023-05-10T11:05:42.549Z,27.40
2023-05-10T11:11:12.550Z,27.30
2023-05-10T11:16:19.783Z,27.50
2023-05-10T11:21:23.682Z,28.30
2023-05-10T11:26:31.705Z,27.50
2023-05-10T11:31:42.840Z,27.00
2023-05-10T11:36:52.827Z,27.00
2023-05-10T11:41:56.527Z,27.20
2023-05-10T11:47:02.154Z,26.50
2023-05-10T11:52:07.175Z,26.80
2023-05-10T11:57:10.715Z,27.50
2023-05-10T12:02:16.060Z,28.50
2023-05-10T12:07:19.561Z,27.60
2023-05-10T12:12:23.426Z,28.00
2023-05-10T12:17:31.058Z,27.30
2023-05-10T12:22:35.891Z,28.70
2023-05-10T12:27:39.302Z,28.20
2023-05-10T12:32:45.675Z,27.90
2023-05-10T12:37:49.317Z,28.00
2023-05-10T12:42:53.567Z,28.10
2023-05-10T12:47:58.610Z,27.50
2023-05-10T12:53:02.527Z,26.80
2023-05-10T12:58:06.426Z,27.50
2023-05-10T13:03:11.575Z,27.00
2023-05-10T13:08:15.174Z,27.10
2023-05-10T13:13:19.269Z,27.20
2023-05-10T13:18:25.153Z,27.20
2023-05-10T13:23:28.619Z,26.80
2023-05-10T13:28:32.530Z,26.90
2023-05-10T13:33:37.367Z,27.00
2023-05-10T13:38:40.963Z,27.10
2023-05-10T13:43:44.422Z,26.80
2023-05-10T13:48:49.135Z,26.30
2023-05-10T13:53:53.181Z,26.80
2023-05-10T13:58:56.942Z,26.80
2023-05-10T14:04:02.549Z,26.30
2023-05-10T14:09:06.126Z,26.80
2023-05-10T14:14:10.020Z,26.70
2023-05-10T14:19:14.750Z,26.40
2023-05-10T14:24:18.340Z,26.50
2023-05-10T14:29:21.735Z,26.40
2023-05-10T14:34:26.423Z,25.10
2023-05-10T14:39:31.171Z,24.70
2023-05-10T14:44:34.543Z,23.90
2023-05-10T14:49:39.276Z,23.90
2023-05-10T14:54:42.418Z,23.50
2023-05-10T14:59:45.829Z,23.30
2023-05-10T15:04:51.815Z,23.20
2023-05-10T15:09:55.699Z,23.60
2023-05-10T15:14:59.007Z,23.40
2023-05-10T15:20:05.045Z,23.20
2023-05-10T15:25:09.031Z,23.10
2023-05-10T15:30:13.238Z,22.90
2023-05-10T15:35:18.697Z,22.90
2023-05-10T15:40:22.339Z,23.20
2023-05-10T15:45:25.654Z,24.00
2023-05-10T15:50:30.264Z,24.30
2023-05-10T15:55:35.356Z,24.90
2023-05-10T16:00:39.161Z,25.10
2023-05-10T16:05:43.772Z,24.90
2023-05-10T16:10:47.026Z,24.40
2023-05-10T16:15:50.609Z,23.80
2023-05-10T16:20:55.216Z,23.90
2023-05-10T16:25:58.513Z,23.10
2023-05-10T16:31:02.463Z,22.20
2023-05-10T16:36:07.526Z,21.70
2023-05-10T16:41:11.264Z,21.80
2023-05-10T16:46:15.338Z,21.80
2023-05-10T16:51:19.982Z,21.70
2023-05-10T16:56:24.546Z,21.90
2023-05-10T17:01:28.054Z,21.80
2023-05-10T17:06:33.209Z,21.90
2023-05-10T17:11:36.502Z,21.10
2023-05-10T17:16:40.020Z,20.90
2023-05-10T17:21:44.837Z,20.40
2023-05-10T17:26:48.774Z,20.10
2023-05-10T17:31:52.146Z,19.80
2023-05-10T17:36:58.081Z,19.60
2023-05-10T17:42:01.424Z,19.30
2023-05-10T17:47:04.790Z,19.10
2023-05-10T17:52:09.635Z,18.70
2023-05-10T17:57:13.656Z,18.60
2023-05-10T18:02:17.010Z,18.30
2023-05-10T18:07:23.752Z,18.10
2023-05-10T18:12:27.106Z,17.60
2023-05-10T18:17:31.135Z,17.60
2023-05-10T18:22:36.433Z,17.50
2023-05-10T18:27:39.942Z,17.30
2023-05-10T18:32:43.455Z,16.90
2023-05-10T18:37:48.674Z,17.00
2023-05-10T18:42:52.479Z,16.90
2023-05-10T18:47:55.895Z,16.50
2023-05-10T18:53:00.659Z,16.40
2023-05-10T18:58:04.067Z,16.30
2023-05-10T19:03:07.431Z,16.30
2023-05-10T19:08:12.744Z,16.20
2023-05-10T19:13:16.179Z,16.10
2023-05-10T19:18:20.721Z,15.90
2023-05-10T19:23:25.580Z,15.60
2023-05-10T19:28:29.976Z,15.30
2023-05-10T19:33:33.421Z,15.10
2023-05-10T19:38:38.314Z,14.90
2023-05-10T19:43:42.378Z,14.60
2023-05-10T19:48:46.790Z,14.40
2023-05-10T19:53:53.077Z,14.20
2023-05-10T19:58:56.402Z,14.00
2023-05-10T20:03:59.737Z,13.90
2023-05-10T20:09:04.974Z,13.80
2023-05-10T20:14:08.823Z,13.70
2023-05-10T20:19:12.947Z,13.60
2023-05-10T20:24:18.385Z,13.60
2023-05-10T20:29:21.572Z,13.50
2023-05-10T20:34:24.956Z,13.60
2023-05-10T20:39:30.054Z,13.40
2023-05-10T20:44:33.421Z,13.30
2023-05-10T20:49:38.033Z,13.20
2023-05-10T20:54:42.692Z,13.10
2023-05-10T20:59:46.007Z,13.00
2023-05-10T21:04:49.463Z,12.90
2023-05-10T21:09:54.199Z,12.80
2023-05-10T21:14:57.502Z,12.60
2023-05-10T21:20:00.946Z,12.50
2023-05-10T21:25:07.398Z,12.50
2023-05-10T21:30:11.948Z,12.40
2023-05-10T21:35:15.893Z,12.40
2023-05-10T21:40:21.014Z,12.30
2023-05-10T21:45:24.349Z,12.20
2023-05-10T21:50:28.467Z,12.20
2023-05-10T21:55:34.375Z,12.20
2023-05-10T22:00:37.915Z,12.20
2023-05-10T22:05:42.188Z,12.40
2023-05-10T22:10:46.841Z,12.60
2023-05-10T22:15:51.668Z,12.70
2023-05-10T22:20:55.308Z,12.80
2023-05-10T22:26:02.618Z,13.00
2023-05-10T22:31:10.145Z,13.00
2023-05-10T22:36:15.166Z,13.00
2023-05-10T22:41:19.909Z,13.00
2023-05-10T22:46:23.491Z,13.10
2023-05-10T22:51:27.241Z,13.20
2023-05-10T22:56:32.295Z,13.00
2023-05-10T23:01:35.769Z,12.90
2023-05-10T23:06:39.645Z,12.70
2023-05-10T23:11:44.760Z,12.60
2023-05-10T23:16:48.061Z,12.60
2023-05-10T23:21:51.445Z,12.50
2023-05-10T23:26:56.108Z,12.40
2023-05-10T23:32:00.146Z,12.30
2023-05-10T23:37:03.568Z,12.20
2023-05-10T23:42:09.063Z,11.90
2023-05-10T23:47:12.510Z,11.70
2023-05-10T23:52:16.413Z,11.60
2023-05-10T23:57:21.952Z,11.50
